createdAt,value
2022-12-01T00:01:43.345Z,-3.35
2022-12-01T00:04:12.147Z,-3.30
2022-12-01T00:06:40.724Z,-3.48
2022-12-01T00:09:28.706Z,-3.39
2022-12-01T00:11:58.788Z,-3.14
2022-12-01T00:14:27.496Z,-3.33
2022-12-01T00:16:56.217Z,-3.29
2022-12-01T00:19:26.314Z,-3.54
2022-12-01T00:21:55.078Z,-3.54
2022-12-01T00:24:24.771Z,-3.41
2022-12-01T00:26:53.417Z,-3.44
2022-12-01T00:29:23.423Z,-3.60
2022-12-01T00:31:52.057Z,-3.53
2022-12-01T00:34:24.689Z,-3.44
2022-12-01T00:36:53.606Z,-3.35
2022-12-01T00:39:22.714Z,-3.38
2022-12-01T00:41:51.217Z,-3.31
2022-12-01T00:44:19.748Z,-3.20
2022-12-01T00:46:50.127Z,-3.34
2022-12-01T00:49:18.759Z,-3.31
2022-12-01T00:51:47.713Z,-3.33
2022-12-01T00:54:16.339Z,-3.42
2022-12-01T00:56:44.816Z,-3.44
2022-12-01T00:59:13.615Z,-3.40
2022-12-01T01:01:42.467Z,-3.44
2022-12-01T01:04:12.591Z,-3.56
2022-12-01T01:06:43.662Z,-3.41
2022-12-01T01:09:12.216Z,-3.37
2022-12-01T01:11:41.025Z,-3.51
2022-12-01T01:14:10.412Z,-3.52
2022-12-01T01:16:39.240Z,-3.50
2022-12-01T01:19:08.206Z,-3.51
2022-12-01T01:21:38.272Z,-3.50
2022-12-01T01:24:07.823Z,-3.67
2022-12-01T01:26:37.188Z,-3.65
2022-12-01T01:29:07.900Z,-3.67
2022-12-01T01:31:36.994Z,-3.67
2022-12-01T01:34:05.732Z,-3.61
2022-12-01T01:36:34.534Z,-3.69
2022-12-01T01:39:05.632Z,-3.76
2022-12-01T01:41:34.001Z,-3.71
2022-12-01T01:44:04.205Z,-3.78
2022-12-01T01:46:34.123Z,-3.81
2022-12-01T01:49:08.110Z,-3.81
2022-12-01T01:51:42.476Z,-3.86
2022-12-01T01:54:16.266Z,-3.88
2022-12-01T01:56:46.044Z,-3.85
2022-12-01T01:59:17.736Z,-3.89
2022-12-01T02:01:47.506Z,-3.87
2022-12-01T02:04:16.836Z,-3.85
2022-12-01T02:06:45.395Z,-3.88
2022-12-01T02:09:16.352Z,-3.95
2022-12-01T02:12:02.102Z,-3.76
2022-12-01T02:14:51.282Z,-3.84
2022-12-01T02:17:30.650Z,-3.75
2022-12-01T02:20:46.888Z,-3.78
2022-12-01T02:23:51.895Z,-3.79
2022-12-01T02:26:41.115Z,-3.87
2022-12-01T02:29:48.514Z,-3.94
2022-12-01T02:32:22.767Z,-3.88
2022-12-01T02:34:57.495Z,-3.94
2022-12-01T02:37:33.288Z,-3.96
2022-12-01T02:40:12.218Z,-3.98
2022-12-01T02:42:54.613Z,-3.96
2022-12-01T02:45:36.452Z,-4.01
2022-12-01T02:48:11.600Z,-4.01
2022-12-01T02:50:42.282Z,-3.98
2022-12-01T02:53:14.780Z,-3.98
2022-12-01T02:55:51.866Z,-3.90
2022-12-01T02:58:20.725Z,-3.96
2022-12-01T03:01:08.127Z,-3.87
2022-12-01T03:03:58.925Z,-3.92
2022-12-01T03:06:38.380Z,-3.91
2022-12-01T03:09:17.612Z,-3.85
2022-12-01T03:11:52.451Z,-3.87
2022-12-01T03:14:32.708Z,-3.82
2022-12-01T03:17:09.268Z,-3.93
2022-12-01T03:19:43.927Z,-4.02
2022-12-01T03:22:16.299Z,-4.06
2022-12-01T03:24:49.554Z,-4.23
2022-12-01T03:27:23.760Z,-4.50
2022-12-01T03:29:55.982Z,-4.55
2022-12-01T03:32:31.603Z,-4.74
2022-12-01T03:35:09.166Z,-4.69
2022-12-01T03:37:43.741Z,-5.16
2022-12-01T03:40:18.080Z,-5.26
2022-12-01T03:42:51.361Z,-5.12
2022-12-01T03:45:28.264Z,-5.44
2022-12-01T03:47:57.012Z,-5.44
2022-12-01T03:50:33.148Z,-5.44
2022-12-01T03:53:11.586Z,-5.33
2022-12-01T03:55:43.963Z,-5.23
2022-12-01T03:58:16.278Z,-5.16
2022-12-01T04:00:50.519Z,-5.27
2022-12-01T04:03:22.084Z,-5.44
2022-12-01T04:05:54.536Z,-5.43
2022-12-01T04:08:26.697Z,-5.38
2022-12-01T04:10:58.281Z,-5.33
2022-12-01T04:13:26.976Z,-5.35
2022-12-01T04:15:56.837Z,-5.06
2022-12-01T04:18:25.944Z,-5.13
2022-12-01T04:20:57.505Z,-4.92
2022-12-01T04:23:44.088Z,-4.86
2022-12-01T04:26:15.889Z,-4.60
2022-12-01T04:28:45.103Z,-4.52
2022-12-01T04:31:14.117Z,-4.43
2022-12-01T04:33:43.118Z,-4.44
2022-12-01T04:36:13.617Z,-4.37
2022-12-01T04:38:45.063Z,-4.39
2022-12-01T04:41:15.001Z,-4.31
2022-12-01T04:43:44.857Z,-4.23
2022-12-01T04:46:16.843Z,-4.26
2022-12-01T04:48:45.997Z,-4.16
2022-12-01T04:51:19.617Z,-4.26
2022-12-01T04:53:49.268Z,-4.27
2022-12-01T04:56:19.121Z,-4.45
2022-12-01T04:58:48.457Z,-4.47
2022-12-01T05:01:19.599Z,-4.38
2022-12-01T05:03:50.825Z,-4.48
2022-12-01T05:06:23.462Z,-4.34
2022-12-01T05:08:53.599Z,-4.43
2022-12-01T05:11:23.002Z,-4.42
2022-12-01T05:13:52.378Z,-4.55
2022-12-01T05:16:23.854Z,-4.47
2022-12-01T05:19:16.033Z,-4.57
2022-12-01T05:21:49.562Z,-4.60
2022-12-01T05:24:19.423Z,-4.73
2022-12-01T05:26:48.262Z,-4.58
2022-12-01T05:29:17.524Z,-4.56
2022-12-01T05:31:48.145Z,-4.56
2022-12-01T05:34:17.221Z,-4.51
2022-12-01T05:36:46.319Z,-4.53
2022-12-01T05:39:16.862Z,-4.45
2022-12-01T05:41:48.103Z,-4.54
2022-12-01T05:44:17.159Z,-4.69
2022-12-01T05:46:46.040Z,-4.59
2022-12-01T05:49:15.176Z,-4.64
2022-12-01T05:51:44.868Z,-4.74
2022-12-01T05:54:17.244Z,-4.72
2022-12-01T05:56:47.806Z,-4.82
2022-12-01T05:59:25.542Z,-4.84
2022-12-01T06:01:54.533Z,-5.00
2022-12-01T06:04:25.035Z,-5.07
2022-12-01T06:06:55.222Z,-5.12
2022-12-01T06:09:29.200Z,-5.16
2022-12-01T06:11:59.589Z,-5.44
2022-12-01T06:14:28.500Z,-5.75
2022-12-01T06:16:57.450Z,-6.14
2022-12-01T06:19:26.517Z,-6.32
2022-12-01T06:21:55.588Z,-6.64
2022-12-01T06:24:25.280Z,-6.72
2022-12-01T06:26:54.250Z,-6.87
2022-12-01T06:29:24.583Z,-6.88
2022-12-01T06:31:54.475Z,-6.82
2022-12-01T06:34:23.431Z,-6.62
2022-12-01T06:36:52.269Z,-6.87
2022-12-01T06:39:21.360Z,-6.95
2022-12-01T06:41:50.322Z,-7.03
2022-12-01T06:44:19.435Z,-6.94
2022-12-01T06:46:53.677Z,-7.03
2022-12-01T06:49:24.148Z,-7.19
2022-12-01T06:54:40.133Z,-7.26
2022-12-01T06:57:16.730Z,-6.86
2022-12-01T06:59:58.113Z,-7.04
2022-12-01T07:02:30.003Z,-7.15
2022-12-01T07:05:02.546Z,-7.15
2022-12-01T07:07:32.131Z,-6.87
2022-12-01T07:10:03.583Z,-6.87
2022-12-01T07:12:32.367Z,-6.85
2022-12-01T07:15:03.686Z,-6.67
2022-12-01T07:17:34.343Z,-6.64
2022-12-01T07:20:04.346Z,-6.55
2022-12-01T07:22:33.388Z,-6.56
2022-12-01T07:25:02.752Z,-6.33
2022-12-01T07:27:34.702Z,-6.52
2022-12-01T07:30:04.689Z,-6.63
2022-12-01T07:32:38.309Z,-6.58
2022-12-01T07:35:08.240Z,-6.79
2022-12-01T07:37:37.172Z,-6.58
2022-12-01T07:40:07.140Z,-6.69
2022-12-01T07:42:36.179Z,-6.75
2022-12-01T07:45:08.285Z,-6.81
2022-12-01T07:47:39.169Z,-6.91
2022-12-01T07:50:09.263Z,-6.72
2022-12-01T07:52:38.078Z,-6.86
2022-12-01T07:55:07.862Z,-6.98
2022-12-01T07:57:36.880Z,-7.14
2022-12-01T08:00:11.442Z,-7.19
2022-12-01T08:02:46.698Z,-7.07
2022-12-01T08:05:15.786Z,-7.18
2022-12-01T08:07:44.666Z,-7.26
2022-12-01T08:10:16.619Z,-7.27
2022-12-01T08:12:48.618Z,-7.25
2022-12-01T08:15:20.865Z,-7.13
2022-12-01T08:17:51.291Z,-7.20
2022-12-01T08:20:24.222Z,-7.14
2022-12-01T08:22:53.303Z,-7.23
2022-12-01T08:25:23.543Z,-7.23
2022-12-01T08:28:01.544Z,-7.23
2022-12-01T08:30:30.684Z,-7.20
2022-12-01T08:33:01.104Z,-6.85
2022-12-01T08:35:30.189Z,-6.76
2022-12-01T08:38:02.241Z,-6.55
2022-12-01T08:40:36.723Z,-6.39
2022-12-01T08:43:05.770Z,-6.27
2022-12-01T08:45:34.742Z,-6.13
2022-12-01T08:48:05.305Z,-6.02
2022-12-01T08:50:34.271Z,-6.03
2022-12-01T08:53:06.159Z,-5.96
2022-12-01T08:55:37.941Z,-5.85
2022-12-01T08:58:07.021Z,-5.82
2022-12-01T09:00:35.862Z,-5.72
2022-12-01T09:03:06.399Z,-5.72
2022-12-01T09:05:35.529Z,-5.55
2022-12-01T09:08:21.549Z,-5.61
2022-12-01T09:10:53.438Z,-5.71
2022-12-01T09:13:28.361Z,-5.55
2022-12-01T09:15:58.624Z,-5.50
2022-12-01T09:18:29.605Z,-5.59
2022-12-01T09:20:59.158Z,-5.55
2022-12-01T09:23:28.487Z,-5.59
2022-12-01T09:26:01.939Z,-5.66
2022-12-01T09:28:30.785Z,-5.62
2022-12-01T09:31:05.437Z,-5.69
2022-12-01T09:33:36.388Z,-5.60
2022-12-01T09:36:06.991Z,-5.56
2022-12-01T09:38:37.120Z,-5.28
2022-12-01T09:41:09.561Z,-5.40
2022-12-01T09:43:47.413Z,-5.44
2022-12-01T09:46:21.124Z,-5.60
2022-12-01T09:48:54.229Z,-5.58
2022-12-01T09:51:24.881Z,-5.59
2022-12-01T09:53:56.892Z,-5.72
2022-12-01T09:56:29.350Z,-6.13
2022-12-01T09:59:04.198Z,-6.34
2022-12-01T10:01:37.009Z,-6.31
2022-12-01T10:04:16.722Z,-6.40
2022-12-01T10:06:52.724Z,-6.25
2022-12-01T10:09:25.767Z,-6.27
2022-12-01T10:12:02.049Z,-6.19
2022-12-01T10:14:35.502Z,-6.29
2022-12-01T10:17:15.999Z,-6.10
2022-12-01T10:19:55.022Z,-6.19
2022-12-01T10:22:55.478Z,-6.22
2022-12-01T10:25:27.184Z,-6.06
2022-12-01T10:28:14.247Z,-6.25
2022-12-01T10:30:57.542Z,-6.27
2022-12-01T10:33:28.405Z,-6.17
2022-12-01T10:36:02.023Z,-6.12
2022-12-01T10:38:34.047Z,-5.98
2022-12-01T10:41:05.524Z,-5.76
2022-12-01T10:43:38.664Z,-5.84
2022-12-01T10:46:18.458Z,-5.81
2022-12-01T10:48:58.850Z,-5.95
2022-12-01T10:51:29.968Z,-6.05
2022-12-01T10:54:20.299Z,-6.09
2022-12-01T10:56:57.145Z,-6.19
2022-12-01T10:59:32.788Z,-5.88
2022-12-01T11:02:06.366Z,-5.99
2022-12-01T11:04:46.425Z,-5.89
2022-12-01T11:07:23.560Z,-5.84
2022-12-01T11:10:20.310Z,-5.96
2022-12-01T11:12:58.400Z,-6.18
2022-12-01T11:15:29.780Z,-6.05
2022-12-01T11:18:02.287Z,-6.31
2022-12-01T11:20:37.032Z,-6.18
2022-12-01T11:23:36.640Z,-6.31
2022-12-01T11:26:13.245Z,-6.25
2022-12-01T11:28:52.222Z,-6.05
2022-12-01T11:31:29.236Z,-6.03
2022-12-01T11:34:02.925Z,-5.87
2022-12-01T11:36:44.052Z,-5.79
2022-12-01T11:39:26.946Z,-5.55
2022-12-01T11:41:58.189Z,-5.53
2022-12-01T11:47:24.347Z,-5.67
2022-12-01T11:49:55.790Z,-5.56
2022-12-01T11:52:31.707Z,-5.51
2022-12-01T11:55:10.059Z,-5.55
2022-12-01T11:57:43.152Z,-5.50
2022-12-01T12:00:15.782Z,-5.29
2022-12-01T12:03:02.524Z,-5.27
2022-12-01T12:06:17.775Z,-5.16
2022-12-01T12:09:01.936Z,-5.47
2022-12-01T12:11:46.337Z,-5.62
2022-12-01T12:14:31.083Z,-5.86
2022-12-01T12:17:44.892Z,-6.21
2022-12-01T12:20:26.184Z,-6.53
2022-12-01T12:23:19.731Z,-6.54
2022-12-01T12:26:01.227Z,-6.69
2022-12-01T12:29:00.025Z,-6.50
2022-12-01T12:31:44.528Z,-6.51
2022-12-01T12:34:36.162Z,-6.66
2022-12-01T12:37:30.560Z,-6.81
2022-12-01T12:40:26.343Z,-7.05
2022-12-01T12:43:15.668Z,-7.17
2022-12-01T12:46:02.431Z,-7.41
2022-12-01T12:49:18.627Z,-7.35
2022-12-01T12:51:55.095Z,-7.53
2022-12-01T12:54:38.464Z,-7.64
2022-12-01T12:57:16.923Z,-7.48
2022-12-01T12:59:54.150Z,-7.49
2022-12-01T13:02:30.308Z,-7.49
2022-12-01T13:05:07.289Z,-7.29
2022-12-01T13:07:44.484Z,-7.52
2022-12-01T13:10:28.789Z,-7.57
2022-12-01T13:13:04.930Z,-7.60
2022-12-01T13:15:40.658Z,-7.65
2022-12-01T13:18:24.581Z,-7.81
2022-12-01T13:20:58.834Z,-7.77
2022-12-01T13:23:28.849Z,-7.82
2022-12-01T13:26:14.629Z,-7.85
2022-12-01T13:28:47.981Z,-7.79
2022-12-01T13:31:18.598Z,-7.91
2022-12-01T13:34:01.360Z,-7.99
2022-12-01T13:36:49.725Z,-7.95
2022-12-01T13:39:22.278Z,-8.08
2022-12-01T13:42:09.303Z,-8.15
2022-12-01T13:44:45.181Z,-8.41
2022-12-01T13:47:54.784Z,-8.67
2022-12-01T13:51:02.005Z,-8.77
2022-12-01T13:53:33.806Z,-8.64
2022-12-01T13:56:24.440Z,-8.48
2022-12-01T13:58:56.944Z,-8.25
2022-12-01T14:01:50.264Z,-8.29
2022-12-01T14:04:30.245Z,-8.22
2022-12-01T14:07:30.546Z,-7.87
2022-12-01T14:10:09.963Z,-7.82
2022-12-01T14:12:44.682Z,-8.10
2022-12-01T14:15:36.461Z,-8.03
2022-12-01T14:18:10.325Z,-8.28
2022-12-01T14:20:50.442Z,-8.48
2022-12-01T14:23:29.231Z,-8.55
2022-12-01T14:26:01.324Z,-8.65
2022-12-01T14:29:04.911Z,-8.54
2022-12-01T14:32:09.846Z,-8.77
2022-12-01T14:34:39.853Z,-8.82
2022-12-01T14:37:16.762Z,-8.74
2022-12-01T14:39:52.027Z,-8.89
2022-12-01T14:42:49.670Z,-8.35
2022-12-01T14:45:26.544Z,-7.93
2022-12-01T14:48:03.441Z,-7.89
2022-12-01T14:50:46.804Z,-7.83
2022-12-01T14:53:24.151Z,-7.82
2022-12-01T14:56:00.987Z,-7.73
2022-12-01T14:58:33.922Z,-7.69
2022-12-01T15:01:11.356Z,-7.67
2022-12-01T15:03:45.746Z,-7.61
2022-12-01T15:06:21.441Z,-7.73
2022-12-01T15:12:09.315Z,-7.78
2022-12-01T15:14:48.926Z,-7.90
2022-12-01T15:17:32.349Z,-8.00
2022-12-01T15:20:03.218Z,-7.92
2022-12-01T15:22:37.759Z,-7.96
2022-12-01T15:25:16.841Z,-7.85
2022-12-01T15:28:06.919Z,-7.90
2022-12-01T15:30:50.200Z,-7.95
2022-12-01T15:33:27.311Z,-8.08
2022-12-01T15:35:58.707Z,-8.01
2022-12-01T15:38:34.467Z,-8.14
2022-12-01T15:44:01.008Z,-8.98
2022-12-01T15:46:39.200Z,-8.99
2022-12-01T15:49:28.108Z,-8.90
2022-12-01T15:52:08.203Z,-8.76
2022-12-01T15:54:42.144Z,-8.73
2022-12-01T15:57:20.448Z,-8.55
2022-12-01T15:59:59.042Z,-8.73
2022-12-01T16:02:34.899Z,-8.61
2022-12-01T16:05:17.041Z,-8.54
2022-12-01T16:08:12.643Z,-8.57
2022-12-01T16:10:43.243Z,-8.66
2022-12-01T16:13:45.763Z,-8.66
2022-12-01T16:16:45.158Z,-8.79
2022-12-01T16:19:30.790Z,-8.72
2022-12-01T16:22:26.068Z,-8.74
2022-12-01T16:24:57.410Z,-8.81
2022-12-01T16:27:34.128Z,-8.73
2022-12-01T16:30:25.849Z,-8.90
2022-12-01T16:33:18.071Z,-8.94
2022-12-01T16:35:55.890Z,-9.02
2022-12-01T16:38:32.973Z,-8.95
2022-12-01T16:41:07.408Z,-8.90
2022-12-01T16:43:50.347Z,-9.09
2022-12-01T16:46:37.305Z,-9.08
2022-12-01T16:49:10.569Z,-9.09
2022-12-01T16:51:56.889Z,-9.11
2022-12-01T16:54:31.284Z,-9.26
2022-12-01T16:57:23.102Z,-9.20
2022-12-01T16:59:55.054Z,-9.15
2022-12-01T17:02:28.457Z,-9.21
2022-12-01T17:05:10.895Z,-9.27
2022-12-01T17:07:46.459Z,-9.28
2022-12-01T17:10:20.259Z,-9.43
2022-12-01T17:12:50.998Z,-9.32
2022-12-01T17:15:23.316Z,-9.46
2022-12-01T17:17:54.799Z,-9.58
2022-12-01T17:20:32.566Z,-9.54
2022-12-01T17:23:05.558Z,-9.59
2022-12-01T17:25:37.997Z,-9.62
2022-12-01T17:28:11.033Z,-9.50
2022-12-01T17:30:43.676Z,-9.65
2022-12-01T17:33:17.539Z,-9.63
2022-12-01T17:35:52.151Z,-9.68
2022-12-01T17:38:26.542Z,-9.67
2022-12-01T17:41:09.774Z,-9.67
2022-12-01T17:43:43.363Z,-9.75
2022-12-01T17:46:14.170Z,-9.78
2022-12-01T17:48:51.278Z,-9.86
2022-12-01T17:51:32.541Z,-9.85
2022-12-01T17:54:03.358Z,-9.82
2022-12-01T17:56:34.206Z,-9.82
2022-12-01T17:59:05.486Z,-9.86
2022-12-01T18:01:34.462Z,-9.95
2022-12-01T18:04:06.607Z,-9.93
2022-12-01T18:06:40.034Z,-9.95
2022-12-01T18:09:12.108Z,-10.01
2022-12-01T18:11:40.948Z,-9.90
2022-12-01T18:14:12.559Z,-9.92
2022-12-01T18:16:46.828Z,-10.06
2022-12-01T18:19:16.381Z,-10.14
2022-12-01T18:21:50.906Z,-10.19
2022-12-01T18:24:23.321Z,-10.29
2022-12-01T18:26:57.688Z,-10.22
2022-12-01T18:29:28.954Z,-10.15
2022-12-01T18:32:01.957Z,-10.32
2022-12-01T18:34:32.696Z,-10.36
2022-12-01T18:37:06.414Z,-10.26
2022-12-01T18:39:39.485Z,-10.41
2022-12-01T18:42:12.479Z,-10.44
2022-12-01T18:44:42.740Z,-10.41
2022-12-01T18:47:12.395Z,-10.33
2022-12-01T18:49:41.380Z,-10.35
2022-12-01T18:52:15.838Z,-10.41
2022-12-01T18:54:51.691Z,-10.49
2022-12-01T18:57:26.716Z,-10.47
2022-12-01T18:59:55.798Z,-10.63
2022-12-01T19:02:25.253Z,-10.63
2022-12-01T19:05:06.032Z,-10.72
2022-12-01T19:07:37.704Z,-10.67
2022-12-01T19:10:11.256Z,-10.69
2022-12-01T19:12:42.920Z,-10.65
2022-12-01T19:15:15.778Z,-10.74
2022-12-01T19:17:49.276Z,-10.70
2022-12-01T19:20:23.933Z,-10.77
2022-12-01T19:22:56.014Z,-10.83
2022-12-01T19:25:25.022Z,-10.63
2022-12-01T19:27:55.816Z,-10.91
2022-12-01T19:30:24.649Z,-10.98
2022-12-01T19:32:57.920Z,-11.07
2022-12-01T19:35:28.663Z,-11.07
2022-12-01T19:38:09.691Z,-11.13
2022-12-01T19:40:54.352Z,-11.07
2022-12-01T19:43:41.342Z,-11.17
2022-12-01T19:46:15.187Z,-11.13
2022-12-01T19:48:48.842Z,-11.16
2022-12-01T19:51:21.764Z,-11.16
2022-12-01T19:54:02.089Z,-11.19
2022-12-01T19:56:34.629Z,-11.24
2022-12-01T19:59:08.100Z,-11.29
2022-12-01T20:01:45.782Z,-11.38
2022-12-01T20:04:15.064Z,-11.29
2022-12-01T20:06:52.097Z,-11.33
2022-12-01T20:09:27.485Z,-11.47
2022-12-01T20:11:59.473Z,-11.38
2022-12-01T20:14:31.322Z,-11.35
2022-12-01T20:17:11.704Z,-11.39
2022-12-01T20:19:45.746Z,-11.72
2022-12-01T20:22:20.833Z,-11.56
2022-12-01T20:24:53.351Z,-11.58
2022-12-01T20:27:25.159Z,-11.55
2022-12-01T20:29:58.216Z,-11.58
2022-12-01T20:32:29.258Z,-11.61
2022-12-01T20:35:10.057Z,-11.71
2022-12-01T20:37:45.977Z,-11.61
2022-12-01T20:40:30.318Z,-11.51
2022-12-01T20:43:01.164Z,-11.70
2022-12-01T20:45:33.354Z,-11.61
2022-12-01T20:48:08.298Z,-11.73
2022-12-01T20:50:40.450Z,-12.09
2022-12-01T20:53:12.545Z,-12.36
2022-12-01T20:55:49.226Z,-12.53
2022-12-01T20:58:26.059Z,-12.62
2022-12-01T21:00:56.244Z,-12.68
2022-12-01T21:03:25.141Z,-12.93
2022-12-01T21:05:59.585Z,-13.08
2022-12-01T21:08:31.427Z,-13.40
2022-12-01T21:11:11.559Z,-13.36
2022-12-01T21:13:53.349Z,-13.55
2022-12-01T21:16:33.700Z,-13.61
2022-12-01T21:19:14.167Z,-13.58
2022-12-01T21:21:46.161Z,-13.68
2022-12-01T21:24:17.378Z,-13.71
2022-12-01T21:26:56.057Z,-13.85
2022-12-01T21:29:45.482Z,-13.94
2022-12-01T21:32:18.329Z,-13.87
2022-12-01T21:34:47.751Z,-13.99
2022-12-01T21:37:23.516Z,-13.69
2022-12-01T21:40:01.387Z,-13.49
2022-12-01T21:42:33.518Z,-13.28
2022-12-01T21:45:14.558Z,-13.03
2022-12-01T21:47:46.665Z,-12.91
2022-12-01T21:50:25.057Z,-12.68
2022-12-01T21:52:57.466Z,-12.73
2022-12-01T21:55:38.602Z,-12.81
2022-12-01T21:58:30.582Z,-12.87
2022-12-01T22:01:10.059Z,-12.90
2022-12-01T22:03:44.943Z,-12.97
2022-12-01T22:06:31.305Z,-12.82
2022-12-01T22:09:16.223Z,-12.79
2022-12-01T22:11:52.086Z,-12.50
2022-12-01T22:14:32.077Z,-12.31
2022-12-01T22:17:15.664Z,-12.25
2022-12-01T22:19:49.149Z,-12.13
2022-12-01T22:22:29.659Z,-11.98
2022-12-01T22:25:20.943Z,-11.94
2022-12-01T22:27:55.681Z,-11.80
2022-12-01T22:30:27.208Z,-11.83
2022-12-01T22:32:57.622Z,-11.78
2022-12-01T22:35:36.065Z,-11.82
2022-12-01T22:38:39.361Z,-11.87
2022-12-01T22:41:19.883Z,-11.83
2022-12-01T22:43:50.367Z,-12.15
2022-12-01T22:46:32.714Z,-12.39
2022-12-01T22:49:19.587Z,-12.49
2022-12-01T22:51:53.560Z,-12.29
2022-12-01T22:54:51.551Z,-12.27
2022-12-01T22:57:36.308Z,-12.16
2022-12-01T23:00:18.625Z,-12.21
2022-12-01T23:02:50.174Z,-12.23
2022-12-01T23:05:29.026Z,-12.39
2022-12-01T23:07:58.877Z,-12.47
2022-12-01T23:10:31.881Z,-12.86
2022-12-01T23:13:03.063Z,-13.06
2022-12-01T23:15:35.120Z,-13.25
2022-12-01T23:18:14.089Z,-13.28
2022-12-01T23:20:44.319Z,-13.18
2022-12-01T23:23:16.012Z,-13.28
2022-12-01T23:25:45.994Z,-13.49
2022-12-01T23:28:15.111Z,-13.53
2022-12-01T23:30:46.042Z,-13.43
2022-12-01T23:33:20.635Z,-13.55
2022-12-01T23:35:53.528Z,-13.59
2022-12-01T23:38:24.727Z,-13.78
2022-12-01T23:40:54.547Z,-14.01
2022-12-01T23:43:25.835Z,-14.03
2022-12-01T23:46:04.218Z,-13.94
2022-12-01T23:48:37.761Z,-13.89
2022-12-01T23:51:12.879Z,-13.72
2022-12-01T23:53:42.089Z,-13.53
2022-12-01T23:56:15.024Z,-13.32
2022-12-01T23:58:45.161Z,-13.68
